Time;durP1;ratioP1;P1;durP2;ratioP2;P2;SDS_P1;SDS_P2;PMS_P1;PMS_P2;Temp;Humidity;BMP_temperature;BMP_pressure;BME280_temperature;BME280_humidity;BME280_pressure;Samples;Min_cycle;Max_cycle;Signal;HPM_P1;HPM_P2
2022/06/19 00:00:46;;;;;;;8.73;3.30;;;;;;;20.54;51.99;95821.34;2056506;28;20521;-60
2022/06/19 00:01:48;;;;;;;6.43;2.65;;;;;;;20.51;52.34;95814.50;2056836;28;20559;-60
2022/06/19 00:02:49;;;;;;;10.52;2.90;;;;;;;20.53;51.97;95817.00;2072012;28;20046;-59
2022/06/19 00:03:54;;;;;;;10.00;2.95;;;;;;;20.54;51.57;95816.06;2064537;28;20039;-59
2022/06/19 00:04:55;;;;;;;5.75;2.28;;;;;;;20.49;51.54;95817.28;2056951;28;20540;-59
2022/06/19 00:05:57;;;;;;;6.82;2.50;;;;;;;20.53;51.31;95809.09;2056542;28;20414;-59
2022/06/19 00:06:58;;;;;;;4.50;2.50;;;;;;;20.46;51.38;95812.28;2056649;28;20055;-59
2022/06/19 00:07:59;;;;;;;6.78;2.45;;;;;;;20.58;51.51;95806.91;2064347;28;20042;-60
2022/06/19 00:09:02;;;;;;;9.80;2.72;;;;;;;20.51;51.53;95806.59;2064480;28;20046;-59
2022/06/19 00:10:04;;;;;;;8.35;2.72;;;;;;;20.43;52.11;95809.09;2064464;28;20435;-59
2022/06/19 00:11:05;;;;;;;8.13;3.03;;;;;;;20.39;51.70;95802.41;2064279;28;20053;-59
2022/06/19 00:12:07;;;;;;;5.38;2.42;;;;;;;20.33;52.00;95803.78;2064100;28;20042;-59
2022/06/19 00:13:08;;;;;;;9.50;2.70;;;;;;;20.40;51.86;95801.47;2064667;28;20046;-60
2022/06/19 00:14:10;;;;;;;9.13;2.70;;;;;;;20.41;52.37;95800.47;2057244;28;20057;-59
2022/06/19 00:15:11;;;;;;;11.98;3.10;;;;;;;20.28;53.07;95804.19;2040925;29;20416;-59
2022/06/19 00:16:12;;;;;;;7.97;2.55;;;;;;;20.19;53.07;95806.84;2040800;29;20051;-58
2022/06/19 00:17:14;;;;;;;6.00;2.50;;;;;;;19.96;53.81;95807.06;2063454;28;20057;-59
2022/06/19 00:18:15;;;;;;;6.88;2.45;;;;;;;19.83;55.49;95809.09;2063999;28;20053;-60
2022/06/19 00:19:16;;;;;;;8.55;2.72;;;;;;;19.75;55.98;95809.78;2056505;28;20055;-59
2022/06/19 00:20:17;;;;;;;8.48;3.17;;;;;;;19.75;55.53;95808.94;2064732;28;20053;-59
2022/06/19 00:21:19;;;;;;;7.63;3.05;;;;;;;19.75;54.98;95811.56;2056617;28;20051;-59
2022/06/19 00:22:20;;;;;;;7.22;3.03;;;;;;;19.76;55.17;95802.72;2048203;28;20529;-59
2022/06/19 00:23:21;;;;;;;8.07;2.90;;;;;;;19.91;55.18;95798.72;2048505;29;20062;-60
2022/06/19 00:24:22;;;;;;;9.13;3.05;;;;;;;19.92;54.71;95800.41;2048135;28;20050;-59
2022/06/19 00:25:23;;;;;;;6.30;2.88;;;;;;;19.80;54.84;95796.19;2064647;28;20049;-61
2022/06/19 00:26:24;;;;;;;8.40;2.97;;;;;;;19.69;55.26;95791.03;2056602;28;20045;-61
2022/06/19 00:27:26;;;;;;;8.52;3.05;;;;;;;19.57;55.91;95795.53;2064606;28;20649;-62
2022/06/19 00:28:27;;;;;;;9.13;2.75;;;;;;;19.71;55.65;95792.56;2063946;28;20347;-61
2022/06/19 00:29:28;;;;;;;9.15;2.88;;;;;;;19.68;56.71;95786.72;2056411;28;20058;-61
2022/06/19 00:30:29;;;;;;;5.90;2.97;;;;;;;19.69;55.45;95777.84;2048382;29;20047;-62
2022/06/19 00:31:31;;;;;;;10.80;3.65;;;;;;;19.67;56.02;95777.16;2040623;29;20055;-62
2022/06/19 00:32:32;;;;;;;8.70;2.95;;;;;;;19.63;56.47;95773.09;2048146;28;20047;-62
2022/06/19 00:33:34;;;;;;;11.25;3.03;;;;;;;19.51;56.27;95775.84;2056432;28;20047;-63
2022/06/19 00:34:36;;;;;;;8.18;3.60;;;;;;;19.40;56.99;95778.53;2064554;28;20468;-62
2022/06/19 00:35:37;;;;;;;8.27;3.33;;;;;;;19.34;56.91;95779.06;2072371;28;20550;-60
2022/06/19 00:36:38;;;;;;;5.30;2.75;;;;;;;19.36;57.71;95767.44;2048752;28;20047;-61
2022/06/19 00:37:39;;;;;;;10.23;2.65;;;;;;;19.28;57.08;95769.91;2048494;29;20047;-61
2022/06/19 00:38:40;;;;;;;7.03;3.38;;;;;;;19.17;58.34;95767.34;2047951;28;20051;-61
2022/06/19 00:39:42;;;;;;;9.85;3.40;;;;;;;19.12;58.35;95764.28;2056399;28;20080;-61
2022/06/19 00:40:44;;;;;;;8.45;3.50;;;;;;;19.19;57.76;95768.03;2064690;28;20042;-62
2022/06/19 00:41:45;;;;;;;9.40;3.40;;;;;;;19.17;58.20;95757.66;2064355;28;20042;-62
2022/06/19 00:42:46;;;;;;;11.10;3.45;;;;;;;19.11;57.96;95757.34;2064007;28;20053;-62
2022/06/19 00:43:58;;;;;;;7.60;2.97;;;;;;;19.01;58.79;95752.03;2064236;28;20058;-61
2022/06/19 00:45:00;;;;;;;9.27;3.22;;;;;;;19.05;58.62;95752.59;2049882;28;20434;-59
2022/06/19 00:46:04;;;;;;;10.45;3.55;;;;;;;18.95;58.76;95755.16;2048960;28;20171;-59
2022/06/19 00:47:17;;;;;;;9.23;3.30;;;;;;;18.94;59.18;95756.13;2064390;28;20440;-59
2022/06/19 00:48:24;;;;;;;7.95;3.50;;;;;;;18.96;58.44;95756.84;2064403;28;20440;-59
2022/06/19 00:49:33;;;;;;;7.50;3.08;;;;;;;19.09;58.06;95754.84;2048310;29;20062;-59
2022/06/19 00:50:34;;;;;;;9.80;3.13;;;;;;;19.01;58.36;95749.41;2042409;28;20055;-59
2022/06/19 00:51:35;;;;;;;6.72;2.83;;;;;;;19.13;57.47;95750.16;2040514;29;20054;-59
2022/06/19 00:52:38;;;;;;;9.40;3.17;;;;;;;19.05;58.79;95736.81;2031823;29;20047;-59
2022/06/19 00:53:42;;;;;;;7.82;2.95;;;;;;;19.07;58.08;95737.53;2048529;28;20406;-60
2022/06/19 00:54:48;;;;;;;7.78;2.78;;;;;;;19.02;58.78;95737.91;2041223;29;20051;-60
2022/06/19 00:55:50;;;;;;;8.57;3.05;;;;;;;18.95;58.42;95742.00;2041373;29;20036;-59
2022/06/19 00:56:51;;;;;;;8.73;2.65;;;;;;;18.97;58.21;95737.47;2040826;29;20429;-59
2022/06/19 00:57:57;;;;;;;11.18;3.20;;;;;;;18.92;58.72;95735.25;2040480;29;20047;-59
2022/06/19 00:58:58;;;;;;;7.68;3.10;;;;;;;18.86;59.07;95735.72;2048529;28;20058;-59
2022/06/19 01:00:03;;;;;;;11.30;3.45;;;;;;;18.91;58.59;95730.09;2056263;28;20106;-59
2022/06/19 01:01:08;;;;;;;7.43;3.00;;;;;;;18.87;58.13;95736.56;2048689;28;20059;-60
2022/06/19 01:02:09;;;;;;;7.75;2.50;;;;;;;18.82;58.49;95736.97;2049821;28;20047;-60
2022/06/19 01:03:22;;;;;;;8.38;3.05;;;;;;;18.80;59.14;95738.06;2063996;28;20050;-60
2022/06/19 01:04:26;;;;;;;9.43;3.00;;;;;;;18.76;58.79;95728.75;2054818;28;20070;-60
2022/06/19 01:05:28;;;;;;;7.25;2.75;;;;;;;18.73;58.55;95733.25;2056493;28;20068;-59
2022/06/19 01:06:29;;;;;;;7.05;2.60;;;;;;;18.72;58.30;95731.59;2064175;28;20054;-58
2022/06/19 01:07:31;;;;;;;8.05;2.83;;;;;;;18.66;59.08;95731.31;2054482;28;20404;-58
2022/06/19 01:08:32;;;;;;;10.52;3.00;;;;;;;18.63;58.63;95721.00;2040054;29;20118;-59
2022/06/19 01:09:33;;;;;;;9.98;3.67;;;;;;;18.61;59.00;95728.22;2047440;28;20047;-59
2022/06/19 01:10:38;;;;;;;10.63;3.00;;;;;;;18.59;59.81;95723.06;2048318;29;20047;-59
2022/06/19 01:11:39;;;;;;;6.65;2.60;;;;;;;18.51;60.07;95723.72;2033659;29;20052;-59
2022/06/19 01:12:42;;;;;;;6.10;2.65;;;;;;;18.43;59.60;95723.50;2041243;28;20051;-58
2022/06/19 01:13:43;;;;;;;5.38;2.50;;;;;;;18.45;60.37;95718.16;2043189;29;20051;-59
2022/06/19 01:14:44;;;;;;;7.22;2.63;;;;;;;18.46;59.47;95720.63;2040551;29;20048;-59
2022/06/19 01:15:45;;;;;;;7.75;2.65;;;;;;;18.34;60.02;95715.56;2040337;29;20063;-59
2022/06/19 01:16:47;;;;;;;6.30;2.60;;;;;;;18.40;59.63;95717.69;2032752;29;20553;-60
2022/06/19 01:17:50;;;;;;;5.93;2.78;;;;;;;18.34;59.71;95718.19;2047804;28;20513;-59
2022/06/19 01:18:51;;;;;;;8.15;2.72;;;;;;;18.33;59.92;95714.72;2056332;28;20043;-59
2022/06/19 01:19:52;;;;;;;6.38;2.88;;;;;;;18.24;60.74;95718.13;2055976;28;20520;-57
2022/06/19 01:20:57;;;;;;;13.52;3.17;;;;;;;18.13;60.75;95720.78;2040851;29;20048;-57
2022/06/19 01:22:10;;;;;;;7.78;2.85;;;;;;;18.08;61.16;95719.38;2041146;28;20059;-60
2022/06/19 01:23:26;;;;;;;7.80;2.88;;;;;;;18.02;60.92;95716.41;2049342;28;20551;-59
2022/06/19 01:24:28;;;;;;;8.95;3.03;;;;;;;18.05;60.78;95717.00;2049682;28;20058;-59
2022/06/19 01:25:31;;;;;;;8.32;3.38;;;;;;;18.02;61.31;95706.72;2049755;28;20054;-59
2022/06/19 01:26:36;;;;;;;6.47;2.60;;;;;;;18.02;61.23;95708.53;2047840;28;20062;-60
2022/06/19 01:29:01;;;;;;;10.27;2.78;;;;;;;17.91;61.68;95696.28;2048398;29;20047;-59
2022/06/19 01:30:05;;;;;;;6.78;3.10;;;;;;;17.94;61.42;95705.69;2050570;28;20055;-57
2022/06/19 01:31:06;;;;;;;10.05;2.97;;;;;;;17.91;61.60;95698.91;2047693;28;20457;-60
2022/06/19 01:32:08;;;;;;;7.95;2.65;;;;;;;17.89;61.57;95703.44;2046201;28;20051;-59
2022/06/19 01:33:11;;;;;;;8.30;3.00;;;;;;;17.95;61.49;95697.69;2047135;28;20062;-59
2022/06/19 01:35:36;;;;;;;5.45;2.95;;;;;;;17.92;61.87;95697.94;2052567;28;20058;-61
2022/06/19 01:36:38;;;;;;;9.93;3.03;;;;;;;17.92;61.55;95697.09;2051418;28;20055;-58
2022/06/19 01:37:39;;;;;;;10.05;3.25;;;;;;;17.97;61.76;95697.56;2055933;28;20042;-57
2022/06/19 01:38:40;;;;;;;11.05;3.13;;;;;;;17.92;61.66;95694.47;2055332;28;20579;-60
2022/06/19 01:39:44;;;;;;;8.77;3.42;;;;;;;17.90;62.12;95691.97;2040876;29;20039;-59
2022/06/19 01:40:47;;;;;;;7.53;3.22;;;;;;;17.99;61.08;95679.84;2048489;28;20054;-60
2022/06/19 01:41:48;;;;;;;7.88;2.95;;;;;;;17.94;61.37;95687.31;2048920;28;20045;-58
2022/06/19 01:42:49;;;;;;;8.05;3.03;;;;;;;17.89;62.05;95682.41;2047773;29;20051;-59
2022/06/19 01:43:51;;;;;;;9.75;3.17;;;;;;;17.79;61.94;95684.94;2055536;28;20051;-59
2022/06/19 01:44:52;;;;;;;4.68;2.38;;;;;;;17.80;62.64;95678.75;2063572;28;20046;-59
2022/06/19 01:45:55;;;;;;;7.32;2.80;;;;;;;17.79;62.57;95679.69;2055666;28;20050;-58
2022/06/19 01:46:56;;;;;;;10.27;3.00;;;;;;;17.68;63.18;95677.06;2055717;28;20050;-59
2022/06/19 01:47:57;;;;;;;8.25;2.83;;;;;;;17.62;63.20;95675.78;2058473;28;20053;-59
2022/06/19 01:48:58;;;;;;;7.05;3.00;;;;;;;17.61;63.05;95674.13;2047419;29;20544;-59
2022/06/19 01:50:00;;;;;;;9.23;2.92;;;;;;;17.57;62.93;95663.97;2048050;28;20047;-59
2022/06/19 01:51:03;;;;;;;6.38;2.80;;;;;;;17.60;62.78;95675.06;2047851;28;20051;-59
2022/06/19 01:52:04;;;;;;;12.32;3.42;;;;;;;17.58;63.20;95676.13;2040538;29;20058;-58
2022/06/19 01:53:13;;;;;;;9.82;3.28;;;;;;;17.47;63.20;95669.13;2047868;28;20441;-60
2022/06/19 01:54:20;;;;;;;7.70;2.80;;;;;;;17.43;63.71;95662.47;2056346;28;20047;-58
2022/06/19 01:55:22;;;;;;;10.23;2.85;;;;;;;17.42;63.27;95666.84;2047785;29;20047;-59
2022/06/19 01:56:23;;;;;;;8.40;3.08;;;;;;;17.39;63.95;95663.66;2055759;28;20329;-59
2022/06/19 01:57:24;;;;;;;10.75;3.17;;;;;;;17.38;63.36;95660.19;2047811;29;20050;-59
2022/06/19 01:58:27;;;;;;;7.78;3.25;;;;;;;17.34;64.04;95658.75;2031842;29;20059;-59
2022/06/19 01:59:29;;;;;;;5.70;2.85;;;;;;;17.36;63.71;95661.28;2040556;29;20047;-59
2022/06/19 02:00:31;;;;;;;10.35;3.15;;;;;;;17.37;63.83;95657.69;2048037;29;20058;-59
2022/06/19 02:01:33;;;;;;;8.68;3.03;;;;;;;17.39;63.84;95651.34;2056011;28;20062;-59
2022/06/19 02:02:34;;;;;;;7.55;2.92;;;;;;;17.44;63.77;95652.78;2039744;29;20048;-59
2022/06/19 02:03:42;;;;;;;7.03;3.00;;;;;;;17.38;64.08;95657.56;2039916;29;20058;-60
2022/06/19 02:04:43;;;;;;;9.73;3.25;;;;;;;17.28;64.33;95656.63;2048451;29;20035;-60
2022/06/19 02:05:45;;;;;;;8.60;3.13;;;;;;;17.28;64.21;95656.63;2056180;28;20405;-59
2022/06/19 02:06:47;;;;;;;8.52;3.28;;;;;;;17.19;65.13;95654.75;2056524;28;20047;-59
2022/06/19 02:07:48;;;;;;;6.15;3.15;;;;;;;17.18;64.93;95653.91;2055677;28;20404;-59
2022/06/19 02:08:50;;;;;;;7.13;3.15;;;;;;;17.14;64.61;95652.47;2048492;28;20051;-59
2022/06/19 02:09:51;;;;;;;10.00;3.55;;;;;;;17.20;65.27;95651.16;2048439;28;20039;-59
2022/06/19 02:10:53;;;;;;;7.50;2.63;;;;;;;17.14;65.03;95642.00;2040283;29;20028;-57
2022/06/19 02:11:54;;;;;;;7.75;3.25;;;;;;;17.08;65.22;95636.38;2032032;29;20070;-60
2022/06/19 02:12:57;;;;;;;7.57;2.63;;;;;;;17.09;65.44;95638.88;2032399;29;20052;-59
2022/06/19 02:14:00;;;;;;;6.43;3.20;;;;;;;17.02;65.85;95640.31;2040041;29;20055;-59
2022/06/19 02:15:02;;;;;;;7.93;2.95;;;;;;;16.98;65.57;95641.53;2048591;28;20497;-59
2022/06/19 02:16:05;;;;;;;7.78;3.10;;;;;;;16.95;65.96;95641.78;2040269;29;20050;-58
2022/06/19 02:17:09;;;;;;;11.15;3.30;;;;;;;16.91;65.81;95637.72;2048758;28;20051;-58
2022/06/19 02:18:13;;;;;;;9.75;3.63;;;;;;;16.88;65.65;95645.81;2047196;29;20045;-60
2022/06/19 02:19:15;;;;;;;8.65;3.05;;;;;;;16.84;65.53;95639.13;2048264;28;20052;-59
2022/06/19 02:20:16;;;;;;;12.68;3.50;;;;;;;16.85;65.97;95636.41;2055295;28;20050;-59
2022/06/19 02:21:20;;;;;;;6.60;2.90;;;;;;;16.78;67.13;95644.84;2040540;29;20058;-59
2022/06/19 02:22:22;;;;;;;5.28;2.75;;;;;;;16.72;67.27;95635.66;2048279;28;20047;-58
2022/06/19 02:23:26;;;;;;;10.63;3.50;;;;;;;16.66;69.33;95638.75;2047926;29;20070;-60
2022/06/19 02:24:27;;;;;;;8.60;3.65;;;;;;;16.60;70.35;95642.69;2048537;28;20058;-59
2022/06/19 02:25:29;;;;;;;7.50;3.30;;;;;;;16.61;70.28;95638.28;2055899;28;20046;-59
2022/06/19 02:26:35;;;;;;;6.10;2.38;;;;;;;16.62;69.91;95639.94;2049211;28;20465;-59
2022/06/19 02:27:37;;;;;;;10.13;2.92;;;;;;;16.65;69.22;95639.69;2048038;28;20132;-59
2022/06/19 02:28:41;;;;;;;6.60;3.15;;;;;;;16.65;68.50;95639.69;2047284;28;20047;-58
2022/06/19 02:29:43;;;;;;;7.53;2.67;;;;;;;16.63;68.92;95636.38;2041404;28;20052;-59
2022/06/19 02:30:46;;;;;;;11.82;3.83;;;;;;;16.60;68.28;95637.44;2040558;29;20053;-59
2022/06/19 02:31:49;;;;;;;10.20;3.58;;;;;;;16.59;68.64;95635.75;2048211;28;20062;-59
2022/06/19 02:32:50;;;;;;;10.40;3.08;;;;;;;16.54;69.71;95628.28;2048140;28;20047;-59
2022/06/19 02:33:54;;;;;;;8.13;3.40;;;;;;;16.55;68.16;95623.84;2040053;29;20211;-59
2022/06/19 02:34:56;;;;;;;7.63;3.28;;;;;;;16.51;69.28;95625.84;2048808;28;20090;-59
2022/06/19 02:35:57;;;;;;;10.32;3.05;;;;;;;16.50;69.34;95621.56;2058405;28;20047;-60
2022/06/19 02:36:59;;;;;;;5.43;3.08;;;;;;;16.49;68.82;95619.91;2056874;28;20444;-59
2022/06/19 02:38:05;;;;;;;7.88;3.10;;;;;;;16.47;68.61;95624.44;2049551;29;20040;-57
2022/06/19 02:39:15;;;;;;;9.02;2.90;;;;;;;16.44;68.54;95619.44;2043013;28;20051;-59
2022/06/19 02:40:23;;;;;;;10.57;2.95;;;;;;;16.40;68.87;95615.38;2058700;28;20058;-59
2022/06/19 02:41:24;;;;;;;7.78;3.15;;;;;;;16.42;68.40;95623.94;2064213;28;20529;-60
2022/06/19 02:42:32;;;;;;;7.88;3.05;;;;;;;16.36;68.80;95613.94;2049905;28;20528;-60
2022/06/19 02:43:33;;;;;;;8.35;3.15;;;;;;;16.33;68.89;95616.78;2048877;29;20054;-60
2022/06/19 02:44:37;;;;;;;5.55;3.22;;;;;;;16.28;68.87;95618.94;2050023;28;20050;-58
2022/06/19 02:45:39;;;;;;;7.53;3.15;;;;;;;16.22;69.47;95622.81;2057602;28;20105;-58
2022/06/19 02:46:41;;;;;;;10.20;3.58;;;;;;;16.21;69.50;95618.56;2049042;29;20468;-59
2022/06/19 02:47:42;;;;;;;13.02;3.72;;;;;;;16.20;69.62;95624.75;2051845;28;20555;-59
2022/06/19 02:48:43;;;;;;;10.25;3.33;;;;;;;16.18;69.67;95617.97;2048731;28;20046;-59
2022/06/19 02:49:45;;;;;;;6.43;3.17;;;;;;;16.19;69.91;95623.06;2049465;29;20051;-58
2022/06/19 02:50:46;;;;;;;6.43;2.95;;;;;;;16.18;70.41;95621.41;2049540;28;20503;-59
2022/06/19 02:51:47;;;;;;;6.68;3.25;;;;;;;16.20;70.31;95621.28;2041454;29;20044;-59
2022/06/19 02:52:49;;;;;;;8.35;3.10;;;;;;;16.14;70.69;95619.13;2041184;28;20047;-59
2022/06/19 02:53:50;;;;;;;10.20;3.22;;;;;;;16.12;71.25;95621.03;2056992;28;20050;-59
2022/06/19 02:54:52;;;;;;;8.45;3.00;;;;;;;16.11;71.03;95625.44;2041151;29;20050;-60
2022/06/19 02:55:54;;;;;;;13.07;3.40;;;;;;;16.14;71.07;95621.75;2049317;29;20050;-57
2022/06/19 02:56:55;;;;;;;8.52;3.13;;;;;;;16.17;70.01;95626.75;2049237;28;20531;-59
2022/06/19 02:57:57;;;;;;;8.32;2.95;;;;;;;16.16;70.29;95619.84;2048835;29;20066;-59
2022/06/19 02:58:58;;;;;;;7.97;3.03;;;;;;;16.11;70.26;95625.44;2049351;28;20555;-59
2022/06/19 02:59:59;;;;;;;9.98;3.53;;;;;;;16.10;70.27;95619.34;2049612;28;20047;-60
2022/06/19 03:01:01;;;;;;;6.60;2.88;;;;;;;16.07;70.23;95624.00;2049661;28;20062;-58
2022/06/19 03:02:02;;;;;;;11.57;3.15;;;;;;;16.07;69.93;95627.44;2057001;28;20051;-58
2022/06/19 03:03:07;;;;;;;8.63;3.35;;;;;;;16.02;70.08;95626.97;2049577;28;20047;-59
2022/06/19 03:04:25;;;;;;;8.00;3.05;;;;;;;15.91;70.90;95633.97;2042542;28;20047;-59
2022/06/19 03:05:27;;;;;;;9.02;3.10;;;;;;;15.84;72.60;95641.41;2049343;29;20086;-60
2022/06/19 03:06:29;;;;;;;6.97;3.08;;;;;;;15.92;72.92;95638.22;2048828;29;20054;-59
2022/06/19 03:07:30;;;;;;;12.77;3.05;;;;;;;16.02;72.41;95637.44;2049523;28;20047;-58
2022/06/19 03:08:31;;;;;;;9.30;3.00;;;;;;;16.06;72.01;95641.50;2064775;28;20101;-59
2022/06/19 03:09:32;;;;;;;8.77;3.50;;;;;;;16.01;73.45;95646.25;2056651;28;20575;-59
2022/06/19 03:10:34;;;;;;;7.22;2.80;;;;;;;16.00;72.10;95646.34;2041890;28;20129;-58
2022/06/19 03:11:35;;;;;;;8.13;3.28;;;;;;;16.02;71.79;95642.69;2065183;28;20047;-59
2022/06/19 03:12:37;;;;;;;9.90;3.65;;;;;;;16.05;71.71;95641.59;2056204;28;20047;-59
2022/06/19 03:13:38;;;;;;;8.02;3.30;;;;;;;16.02;71.79;95652.31;2049643;28;20047;-59
2022/06/19 03:14:39;;;;;;;9.85;3.67;;;;;;;15.98;71.61;95646.47;2049223;29;20051;-59
2022/06/19 03:15:40;;;;;;;7.75;3.05;;;;;;;15.97;71.82;95650.03;2049361;28;20584;-58
2022/06/19 03:16:42;;;;;;;11.70;3.75;;;;;;;15.97;71.93;95651.81;2048438;28;20058;-58
2022/06/19 03:17:43;;;;;;;8.20;2.88;;;;;;;15.93;71.81;95650.38;2041634;29;20059;-58
2022/06/19 03:18:44;;;;;;;9.07;3.47;;;;;;;15.92;72.18;95641.69;2048567;29;20050;-58
2022/06/19 03:19:45;;;;;;;10.88;3.63;;;;;;;15.90;72.36;95646.19;2048962;28;20047;-59
2022/06/19 03:20:47;;;;;;;13.60;3.30;;;;;;;15.96;71.61;95648.38;2056597;28;20054;-59
2022/06/19 03:21:49;;;;;;;7.93;3.70;;;;;;;15.95;71.96;95645.84;2056965;28;20424;-59
2022/06/19 03:22:51;;;;;;;6.68;3.33;;;;;;;15.91;71.65;95655.72;2049677;28;20051;-59
2022/06/19 03:23:52;;;;;;;10.98;3.53;;;;;;;15.74;72.72;95656.13;2057475;28;20051;-57
2022/06/19 03:24:53;;;;;;;6.60;3.17;;;;;;;15.69;72.85;95664.34;2056614;28;20046;-58
2022/06/19 03:25:55;;;;;;;9.27;3.88;;;;;;;15.72;72.86;95671.13;2056206;28;20046;-59
2022/06/19 03:26:56;;;;;;;9.38;3.72;;;;;;;15.96;72.10;95664.09;2056623;28;20070;-59
2022/06/19 03:27:59;;;;;;;9.18;3.17;;;;;;;15.93;71.75;95660.84;2049595;28;20516;-59
2022/06/19 03:29:00;;;;;;;8.27;3.30;;;;;;;15.91;71.74;95660.97;2048996;28;20058;-59
2022/06/19 03:30:03;;;;;;;6.47;3.45;;;;;;;15.92;72.14;95656.56;2048944;29;20659;-59
2022/06/19 03:31:04;;;;;;;10.07;3.67;;;;;;;16.03;71.90;95657.44;2048946;28;20066;-60
2022/06/19 03:32:06;;;;;;;7.22;2.90;;;;;;;16.06;71.03;95649.38;2041323;28;20055;-59
2022/06/19 03:33:07;;;;;;;10.13;2.83;;;;;;;16.13;70.63;95654.13;2041325;29;20055;-59
2022/06/19 03:34:09;;;;;;;11.70;2.95;;;;;;;16.11;70.46;95654.25;2041135;28;20413;-59
2022/06/19 03:35:10;;;;;;;6.85;2.90;;;;;;;16.07;70.68;95652.81;2057033;28;20463;-59
2022/06/19 03:36:11;;;;;;;8.43;3.13;;;;;;;16.13;70.12;95654.97;2057526;28;20054;-59
2022/06/19 03:37:13;;;;;;;12.98;3.50;;;;;;;16.13;70.28;95651.53;2049609;28;20050;-60
2022/06/19 03:38:15;;;;;;;9.73;3.33;;;;;;;16.09;70.78;95650.91;2050236;28;20050;-59
2022/06/19 03:39:16;;;;;;;7.72;3.22;;;;;;;16.08;70.34;95660.53;2056493;28;20046;-58
2022/06/19 03:40:17;;;;;;;13.15;3.47;;;;;;;16.08;70.73;95654.47;2056815;28;20532;-59
2022/06/19 03:41:18;;;;;;;12.52;3.20;;;;;;;16.19;70.21;95651.88;2065129;28;20050;-59
2022/06/19 03:42:20;;;;;;;7.35;3.10;;;;;;;16.15;70.62;95655.69;2056626;28;20043;-60
2022/06/19 03:43:21;;;;;;;10.65;3.40;;;;;;;16.15;70.01;95649.63;2056682;28;20418;-59
2022/06/19 03:44:22;;;;;;;7.90;3.03;;;;;;;16.18;69.60;95652.00;2064726;28;20058;-59
2022/06/19 03:45:24;;;;;;;10.95;3.72;;;;;;;16.13;70.74;95654.97;2049191;28;20553;-59
2022/06/19 03:46:25;;;;;;;8.88;3.13;;;;;;;16.12;70.09;95649.84;2048268;28;20059;-59
2022/06/19 03:47:26;;;;;;;9.90;3.00;;;;;;;16.14;70.36;95653.19;2051211;28;20046;-60
2022/06/19 03:48:27;;;;;;;13.02;3.70;;;;;;;16.13;70.34;95648.91;2056541;28;20436;-58
2022/06/19 03:49:29;;;;;;;8.73;3.63;;;;;;;16.09;69.88;95653.50;2064730;28;20058;-58
2022/06/19 03:50:30;;;;;;;10.55;3.10;;;;;;;16.03;70.48;95654.81;2041367;29;20076;-60
2022/06/19 03:51:31;;;;;;;10.00;3.45;;;;;;;16.08;70.81;95649.22;2048850;28;20058;-58
2022/06/19 03:52:33;;;;;;;8.50;3.03;;;;;;;16.21;70.13;95649.16;2056583;28;20069;-58
2022/06/19 03:53:34;;;;;;;5.45;3.08;;;;;;;16.31;70.15;95650.13;2049483;28;20051;-59
2022/06/19 03:54:35;;;;;;;8.65;3.58;;;;;;;16.36;69.62;95647.16;2049448;28;20062;-59
2022/06/19 03:55:37;;;;;;;13.55;3.63;;;;;;;16.39;69.56;95647.78;2049122;28;20047;-59
2022/06/19 03:56:38;;;;;;;11.85;3.50;;;;;;;16.31;69.50;95644.91;2048942;28;20493;-58
2022/06/19 03:57:40;;;;;;;11.38;3.40;;;;;;;16.38;68.97;95640.84;2048975;29;20417;-58
2022/06/19 03:58:48;;;;;;;8.13;2.90;;;;;;;16.41;69.81;95648.50;2056183;28;20057;-59
2022/06/19 03:59:50;;;;;;;10.65;3.22;;;;;;;16.48;69.13;95649.69;2055595;28;20047;-59
2022/06/19 04:00:51;;;;;;;9.60;3.42;;;;;;;16.36;70.22;95649.78;2050204;28;20059;-59
2022/06/19 04:01:52;;;;;;;7.55;3.05;;;;;;;16.45;69.68;95643.84;2057110;28;20136;-57
2022/06/19 04:02:53;;;;;;;11.63;3.30;;;;;;;16.48;69.42;95647.06;2056837;28;20046;-58
2022/06/19 04:03:55;;;;;;;9.40;2.97;;;;;;;16.52;69.71;95642.44;2057713;28;20678;-58
2022/06/19 04:04:56;;;;;;;9.50;3.60;;;;;;;16.61;69.48;95643.50;2048573;29;20043;-59
2022/06/19 04:05:57;;;;;;;7.05;3.10;;;;;;;16.61;69.44;95644.34;2049124;28;20046;-59
2022/06/19 04:06:58;;;;;;;10.43;3.22;;;;;;;16.65;69.28;95643.16;2048411;29;20086;-59
2022/06/19 04:08:00;;;;;;;9.35;3.10;;;;;;;16.63;69.75;95642.44;2040303;28;20056;-59
2022/06/19 04:09:02;;;;;;;8.30;3.22;;;;;;;16.64;69.72;95645.91;2048496;29;20422;-59
2022/06/19 04:10:04;;;;;;;8.07;3.28;;;;;;;16.66;69.83;95651.88;2056324;28;20054;-59
2022/06/19 04:11:05;;;;;;;8.00;3.15;;;;;;;16.80;68.43;95643.78;2048754;29;20066;-59
2022/06/19 04:12:07;;;;;;;11.27;3.33;;;;;;;16.86;67.93;95650.34;2049102;28;20050;-59
2022/06/19 04:13:08;;;;;;;10.82;3.72;;;;;;;16.77;68.95;95646.66;2056964;28;20122;-59
2022/06/19 04:14:10;;;;;;;10.52;3.45;;;;;;;16.80;68.97;95646.41;2048673;29;20050;-59
2022/06/19 04:15:12;;;;;;;12.20;3.30;;;;;;;16.95;68.22;95647.84;2040555;28;20051;-59
2022/06/19 04:16:15;;;;;;;9.43;3.47;;;;;;;16.94;68.05;95647.97;2048611;28;20047;-60
2022/06/19 04:17:17;;;;;;;7.50;3.35;;;;;;;16.88;68.99;95648.44;2056829;28;20042;-58
2022/06/19 04:18:18;;;;;;;12.32;3.58;;;;;;;16.85;68.10;95654.75;2056369;28;20054;-59
2022/06/19 04:19:19;;;;;;;9.45;3.65;;;;;;;16.81;68.85;95655.09;2048500;29;20060;-59
2022/06/19 04:20:20;;;;;;;8.93;3.13;;;;;;;16.90;67.96;95654.41;2048663;28;20050;-59
2022/06/19 04:21:26;;;;;;;11.82;3.13;;;;;;;17.01;68.26;95661.44;2048791;28;20043;-59
2022/06/19 04:22:27;;;;;;;10.25;3.50;;;;;;;17.12;68.92;95658.81;2048856;28;20050;-59
2022/06/19 04:23:29;;;;;;;10.25;3.33;;;;;;;17.14;68.00;95662.97;2048733;29;20059;-59
2022/06/19 04:24:30;;;;;;;7.93;3.58;;;;;;;17.29;67.91;95660.09;2048734;29;20418;-59
2022/06/19 04:25:31;;;;;;;12.30;3.58;;;;;;;17.36;67.88;95662.09;2048552;28;20062;-58
2022/06/19 04:26:34;;;;;;;7.60;3.42;;;;;;;17.32;67.85;95658.06;2047410;28;20437;-59
2022/06/19 04:27:37;;;;;;;9.32;3.50;;;;;;;17.26;68.45;95655.91;2048786;28;20530;-59
2022/06/19 04:28:38;;;;;;;6.65;3.08;;;;;;;17.42;67.35;95653.75;2041000;29;20054;-59
2022/06/19 04:29:39;;;;;;;12.57;3.42;;;;;;;17.52;67.54;95659.09;2040995;29;20047;-58
2022/06/19 04:30:46;;;;;;;8.55;3.47;;;;;;;17.66;65.92;95660.59;2055964;28;20046;-59
2022/06/19 04:31:47;;;;;;;11.13;3.28;;;;;;;17.67;65.71;95653.56;2048403;29;20043;-59
2022/06/19 04:32:49;;;;;;;10.63;3.72;;;;;;;17.72;66.01;95654.03;2056404;28;20571;-59
2022/06/19 04:33:51;;;;;;;11.60;3.78;;;;;;;17.51;66.72;95654.81;2056328;28;20390;-60
2022/06/19 04:34:52;;;;;;;9.70;3.85;;;;;;;17.47;67.16;95653.38;2048906;28;20035;-59
2022/06/19 04:35:53;;;;;;;11.45;3.63;;;;;;;17.53;67.81;95652.03;2056172;28;20043;-56
2022/06/19 04:36:54;;;;;;;7.85;3.47;;;;;;;17.63;66.77;95658.22;2048054;28;20039;-59
2022/06/19 04:37:56;;;;;;;8.90;3.97;;;;;;;17.57;67.62;95656.94;2048176;28;20054;-58
2022/06/19 04:38:57;;;;;;;9.52;3.55;;;;;;;17.65;67.29;95648.44;2048543;28;20043;-59
2022/06/19 04:39:58;;;;;;;14.45;3.70;;;;;;;17.74;66.35;95642.44;2048083;29;20073;-60
2022/06/19 04:41:00;;;;;;;13.02;3.80;;;;;;;17.75;66.86;95652.00;2040299;29;20054;-60
2022/06/19 04:42:01;;;;;;;9.63;3.90;;;;;;;17.83;66.26;95649.63;2048315;28;20157;-60
2022/06/19 04:43:03;;;;;;;12.43;3.83;;;;;;;17.85;65.92;95654.72;2056422;28;20050;-59
2022/06/19 04:44:06;;;;;;;13.30;3.42;;;;;;;17.87;65.36;95651.97;2056536;28;20460;-59
2022/06/19 04:45:08;;;;;;;13.02;3.50;;;;;;;17.90;66.36;95646.47;2063542;28;20520;-59
2022/06/19 04:46:09;;;;;;;10.25;3.38;;;;;;;17.99;65.52;95648.34;2048240;29;20074;-60
2022/06/19 04:47:10;;;;;;;10.40;3.92;;;;;;;17.91;66.70;95645.50;2041536;28;20066;-59
2022/06/19 04:48:13;;;;;;;10.23;3.53;;;;;;;17.97;66.31;95645.03;2048821;28;20163;-59
2022/06/19 04:49:14;;;;;;;11.70;3.50;;;;;;;17.93;66.27;95639.16;2056182;28;20046;-59
2022/06/19 04:50:16;;;;;;;11.50;4.07;;;;;;;18.09;65.63;95638.75;2048127;29;20070;-59
2022/06/19 04:51:17;;;;;;;12.68;3.40;;;;;;;18.08;65.25;95639.72;2047829;28;20047;-57
2022/06/19 04:52:18;;;;;;;12.00;3.80;;;;;;;18.00;65.10;95644.75;2056039;28;20054;-60
2022/06/19 04:53:20;;;;;;;15.55;4.35;;;;;;;18.02;66.85;95638.44;2048244;28;20066;-59
2022/06/19 04:54:21;;;;;;;13.70;3.75;;;;;;;18.05;66.56;95632.09;2048163;28;20285;-59
2022/06/19 04:55:22;;;;;;;8.27;3.53;;;;;;;18.07;66.37;95644.13;2047966;29;20051;-59